createdAt,value
2022-10-18T00:00:56.576Z,15.60
2022-10-18T00:03:23.882Z,15.60
2022-10-18T00:05:51.272Z,15.60
2022-10-18T00:08:19.862Z,15.50
2022-10-18T00:10:46.681Z,15.50
2022-10-18T00:13:14.134Z,15.50
2022-10-18T00:15:49.026Z,15.40
2022-10-18T00:18:15.833Z,15.40
2022-10-18T00:20:42.663Z,15.40
2022-10-18T00:23:09.443Z,15.40
2022-10-18T00:25:36.238Z,15.40
2022-10-18T00:28:03.070Z,15.30
2022-10-18T00:30:29.926Z,15.30
2022-10-18T00:32:56.756Z,15.30
2022-10-18T00:35:23.576Z,15.20
2022-10-18T00:37:50.355Z,15.20
2022-10-18T00:40:17.234Z,15.10
2022-10-18T00:42:44.059Z,15.10
2022-10-18T00:45:23.131Z,15.10
2022-10-18T00:48:02.435Z,15.00
2022-10-18T00:50:34.347Z,15.00
2022-10-18T00:53:08.492Z,15.00
2022-10-18T00:55:35.324Z,15.00
2022-10-18T00:58:03.885Z,14.90
2022-10-18T01:00:31.223Z,14.90
2022-10-18T01:02:59.469Z,14.90
2022-10-18T01:05:27.122Z,14.80
2022-10-18T01:08:44.178Z,14.80
2022-10-18T01:12:03.369Z,14.80
2022-10-18T01:15:11.333Z,14.70
2022-10-18T01:18:01.286Z,14.70
2022-10-18T01:20:40.957Z,14.60
2022-10-18T01:23:38.385Z,14.60
2022-10-18T01:26:39.017Z,14.50
2022-10-18T01:29:45.289Z,14.50
2022-10-18T01:32:28.895Z,14.50
2022-10-18T01:35:07.243Z,14.50
2022-10-18T01:37:37.680Z,14.50
2022-10-18T01:40:08.536Z,14.40
2022-10-18T01:42:35.313Z,14.40
2022-10-18T01:45:05.149Z,14.40
2022-10-18T01:47:32.944Z,14.40
2022-10-18T01:50:04.739Z,14.40
2022-10-18T01:52:31.904Z,14.40
2022-10-18T01:55:00.735Z,14.30
2022-10-18T01:57:45.526Z,14.30
2022-10-18T02:00:22.113Z,14.40
2022-10-18T02:03:24.344Z,14.30
2022-10-18T02:06:20.198Z,14.30
2022-10-18T02:08:57.486Z,14.30
2022-10-18T02:11:27.015Z,14.30
2022-10-18T02:14:11.219Z,14.20
2022-10-18T02:16:50.382Z,14.20
2022-10-18T02:19:28.461Z,14.20
2022-10-18T02:21:58.163Z,14.20
2022-10-18T02:24:35.622Z,14.10
2022-10-18T02:27:03.284Z,14.10
2022-10-18T02:29:31.317Z,14.10
2022-10-18T02:32:25.520Z,14.00
2022-10-18T02:35:11.039Z,14.00
2022-10-18T02:37:40.253Z,14.00
2022-10-18T02:40:10.624Z,14.00
2022-10-18T02:42:53.492Z,13.90
2022-10-18T02:45:21.218Z,13.90
2022-10-18T02:47:48.221Z,14.00
2022-10-18T02:50:15.348Z,13.90
2022-10-18T02:52:42.169Z,13.90
2022-10-18T02:55:10.125Z,13.90
2022-10-18T02:57:37.432Z,13.90
2022-10-18T03:00:06.968Z,13.90
2022-10-18T03:02:33.854Z,13.90
2022-10-18T03:05:00.676Z,13.90
2022-10-18T03:07:27.496Z,13.90
2022-10-18T03:09:54.431Z,13.90
2022-10-18T03:12:21.330Z,13.80
2022-10-18T03:14:48.142Z,13.80
2022-10-18T03:17:15.106Z,13.80
2022-10-18T03:19:42.033Z,13.80
2022-10-18T03:22:08.834Z,13.80
2022-10-18T03:24:35.597Z,13.70
2022-10-18T03:27:03.012Z,13.70
2022-10-18T03:29:29.809Z,13.70
2022-10-18T03:31:56.633Z,13.70
2022-10-18T03:34:23.470Z,13.70
2022-10-18T03:36:50.311Z,13.60
2022-10-18T03:39:17.188Z,13.60
2022-10-18T03:41:44.024Z,13.60
2022-10-18T03:44:10.785Z,13.60
2022-10-18T03:46:37.586Z,13.60
2022-10-18T03:49:04.413Z,13.60
2022-10-18T03:51:31.355Z,13.60
2022-10-18T03:53:58.150Z,13.60
2022-10-18T03:56:25.092Z,13.60
2022-10-18T03:58:51.947Z,13.60
2022-10-18T04:01:18.827Z,13.60
2022-10-18T04:03:45.686Z,13.60
2022-10-18T04:06:13.175Z,13.60
2022-10-18T04:08:40.003Z,13.60
2022-10-18T04:11:12.055Z,13.60
2022-10-18T04:13:41.840Z,13.70
2022-10-18T04:16:08.624Z,13.70
2022-10-18T04:18:35.423Z,13.60
2022-10-18T04:21:02.260Z,13.70
2022-10-18T04:23:29.052Z,13.70
2022-10-18T04:25:55.876Z,13.70
2022-10-18T04:28:22.687Z,13.70
2022-10-18T04:30:52.161Z,13.70
2022-10-18T04:33:20.225Z,13.70
2022-10-18T04:35:47.424Z,13.80
2022-10-18T04:38:14.741Z,13.80
2022-10-18T04:40:41.545Z,13.80
2022-10-18T04:43:08.504Z,13.80
2022-10-18T04:45:35.341Z,13.90
2022-10-18T04:48:02.533Z,13.90
2022-10-18T04:50:29.331Z,13.90
2022-10-18T04:52:56.488Z,13.90
2022-10-18T04:55:23.447Z,13.90
2022-10-18T04:57:50.243Z,13.90
2022-10-18T05:00:17.314Z,14.00
2022-10-18T05:02:44.102Z,13.90
2022-10-18T05:05:14.001Z,13.90
2022-10-18T05:07:41.530Z,13.90
2022-10-18T05:10:09.201Z,13.90
2022-10-18T05:12:35.988Z,13.90
2022-10-18T05:15:02.952Z,13.90
2022-10-18T05:17:29.753Z,13.80
2022-10-18T05:19:56.640Z,13.80
2022-10-18T05:22:23.395Z,13.80
2022-10-18T05:24:50.181Z,13.80
2022-10-18T05:27:16.958Z,13.80
2022-10-18T05:29:43.820Z,13.70
2022-10-18T05:32:10.677Z,13.80
2022-10-18T05:34:37.525Z,13.80
2022-10-18T05:37:04.379Z,13.80
2022-10-18T05:39:31.338Z,13.80
2022-10-18T05:41:58.510Z,13.80
2022-10-18T05:44:25.384Z,13.90
2022-10-18T05:46:52.376Z,13.90
2022-10-18T05:49:19.401Z,13.90
2022-10-18T05:51:46.177Z,13.90
2022-10-18T05:54:13.299Z,13.90
2022-10-18T05:56:43.288Z,14.00
2022-10-18T05:59:12.209Z,14.10
2022-10-18T06:01:41.592Z,14.10
2022-10-18T06:04:12.500Z,14.20
2022-10-18T06:06:39.989Z,14.20
2022-10-18T06:09:08.586Z,14.30
2022-10-18T06:11:37.004Z,14.40
2022-10-18T06:14:04.951Z,14.40
2022-10-18T06:16:32.781Z,14.50
2022-10-18T06:19:00.042Z,14.60
2022-10-18T06:21:27.651Z,14.70
2022-10-18T06:23:57.622Z,14.80
2022-10-18T06:26:25.937Z,14.90
2022-10-18T06:28:52.899Z,15.00
2022-10-18T06:31:21.251Z,15.10
2022-10-18T06:33:48.428Z,15.20
2022-10-18T06:36:24.064Z,15.30
2022-10-18T06:38:51.626Z,15.30
2022-10-18T06:41:19.539Z,15.40
2022-10-18T06:43:56.937Z,15.50
2022-10-18T06:46:24.787Z,15.60
2022-10-18T06:48:52.563Z,15.70
2022-10-18T06:51:20.039Z,15.80
2022-10-18T06:53:59.164Z,15.90
2022-10-18T06:56:33.529Z,15.90
2022-10-18T06:59:00.542Z,16.00
2022-10-18T07:01:28.500Z,16.10
2022-10-18T07:03:56.437Z,16.10
2022-10-18T07:06:24.009Z,16.20
2022-10-18T07:08:55.113Z,16.20
2022-10-18T07:11:27.172Z,16.30
2022-10-18T07:14:00.753Z,16.30
2022-10-18T07:16:27.659Z,16.30
2022-10-18T07:18:54.531Z,16.40
2022-10-18T07:21:24.892Z,16.50
2022-10-18T07:23:53.176Z,16.60
2022-10-18T07:26:34.919Z,16.60
2022-10-18T07:29:10.204Z,16.70
2022-10-18T07:31:41.083Z,16.80
2022-10-18T07:34:10.554Z,16.90
2022-10-18T07:36:37.600Z,17.10
2022-10-18T07:39:05.229Z,17.20
2022-10-18T07:41:35.349Z,17.30
2022-10-18T07:44:03.918Z,17.50
2022-10-18T07:46:30.867Z,17.80
2022-10-18T07:48:59.514Z,18.10
2022-10-18T07:51:28.002Z,18.40
2022-10-18T07:53:54.994Z,18.80
2022-10-18T07:56:22.394Z,19.10
2022-10-18T07:58:55.456Z,19.30
2022-10-18T08:01:24.435Z,19.50
2022-10-18T08:03:52.045Z,19.70
2022-10-18T08:06:21.092Z,19.70
2022-10-18T08:08:48.264Z,19.80
2022-10-18T08:11:22.183Z,19.90
2022-10-18T08:13:49.593Z,19.80
2022-10-18T08:16:22.335Z,19.90
2022-10-18T08:18:50.285Z,19.90
2022-10-18T08:21:18.984Z,20.10
2022-10-18T08:23:46.426Z,20.50
2022-10-18T08:26:17.814Z,20.80
2022-10-18T08:28:53.690Z,21.00
2022-10-18T08:31:21.196Z,21.30
2022-10-18T08:33:48.185Z,21.70
2022-10-18T08:36:17.441Z,22.10
2022-10-18T08:38:44.704Z,22.60
2022-10-18T08:42:08.161Z,23.00
2022-10-18T08:44:50.979Z,23.50
2022-10-18T08:47:23.057Z,24.00
2022-10-18T08:49:58.196Z,24.20
2022-10-18T08:52:53.210Z,24.50
2022-10-18T08:55:38.326Z,24.80
2022-10-18T08:58:33.521Z,25.10
2022-10-18T09:01:39.657Z,25.40
2022-10-18T09:04:44.276Z,25.70
2022-10-18T09:07:23.051Z,26.00
2022-10-18T09:09:55.105Z,26.20
2022-10-18T09:12:46.183Z,26.40
2022-10-18T09:15:39.842Z,26.50
2022-10-18T09:18:46.933Z,26.70
2022-10-18T09:21:38.724Z,26.80
2022-10-18T09:24:37.559Z,27.00
2022-10-18T09:27:15.406Z,27.00
2022-10-18T09:30:28.115Z,27.00
2022-10-18T09:33:18.904Z,26.90
2022-10-18T09:36:03.212Z,26.90
2022-10-18T09:38:39.485Z,26.90
2022-10-18T09:41:33.378Z,26.90
2022-10-18T09:44:10.695Z,27.00
2022-10-18T09:46:43.684Z,27.10
2022-10-18T09:49:31.030Z,27.30
2022-10-18T09:52:05.629Z,27.70
2022-10-18T09:54:43.989Z,27.90
2022-10-18T09:57:27.238Z,28.10
2022-10-18T09:59:54.004Z,28.00
2022-10-18T10:02:23.988Z,27.90
2022-10-18T10:04:54.246Z,27.70
2022-10-18T10:07:31.039Z,27.50
2022-10-18T10:10:24.649Z,27.20
2022-10-18T10:13:24.509Z,27.00
2022-10-18T10:16:02.162Z,27.00
2022-10-18T10:18:36.430Z,26.90
2022-10-18T10:21:13.276Z,26.90
2022-10-18T10:23:51.198Z,26.80
2022-10-18T10:26:32.268Z,26.70
2022-10-18T10:28:59.919Z,26.70
2022-10-18T10:31:34.333Z,26.80
2022-10-18T10:34:12.070Z,26.90
2022-10-18T10:36:53.014Z,27.10
2022-10-18T10:39:22.954Z,27.30
2022-10-18T10:41:58.560Z,27.50
2022-10-18T10:44:35.791Z,27.70
2022-10-18T10:47:03.958Z,27.80
2022-10-18T10:49:48.634Z,27.80
2022-10-18T10:52:37.156Z,27.80
2022-10-18T10:55:30.448Z,27.60
2022-10-18T10:57:55.461Z,27.40
2022-10-18T11:00:44.684Z,27.20
2022-10-18T11:03:27.966Z,27.00
2022-10-18T11:05:58.812Z,26.80
2022-10-18T11:11:30.559Z,26.70
2022-10-18T11:14:26.141Z,26.80
2022-10-18T11:17:02.059Z,26.80
2022-10-18T11:19:40.034Z,26.80
2022-10-18T11:22:16.290Z,26.70
2022-10-18T11:24:43.767Z,26.60
2022-10-18T11:27:27.201Z,26.50
2022-10-18T11:30:31.490Z,26.40
2022-10-18T11:34:03.603Z,26.20
2022-10-18T11:36:33.976Z,26.10
2022-10-18T11:39:33.880Z,26.10
2022-10-18T11:42:23.905Z,25.90
2022-10-18T11:45:25.980Z,25.80
2022-10-18T11:48:34.992Z,25.70
2022-10-18T11:51:13.894Z,25.60
2022-10-18T11:54:23.383Z,25.50
2022-10-18T11:56:57.255Z,25.50
2022-10-18T11:59:42.252Z,25.40
2022-10-18T12:02:49.305Z,25.40
2022-10-18T12:05:25.118Z,25.40
2022-10-18T12:08:14.048Z,25.40
2022-10-18T12:11:08.953Z,25.40
2022-10-18T12:13:48.055Z,25.40
2022-10-18T12:16:18.028Z,25.40
2022-10-18T12:18:59.036Z,25.40
2022-10-18T12:21:31.400Z,25.40
2022-10-18T12:24:32.316Z,25.50
2022-10-18T12:27:02.057Z,25.50
2022-10-18T12:30:06.685Z,25.50
2022-10-18T12:32:37.341Z,25.60
2022-10-18T12:35:15.282Z,25.60
2022-10-18T12:38:03.043Z,25.60
2022-10-18T12:40:42.865Z,25.60
2022-10-18T12:43:18.680Z,25.70
2022-10-18T12:45:56.965Z,25.80
2022-10-18T12:49:03.180Z,25.80
2022-10-18T12:51:30.326Z,25.80
2022-10-18T12:54:03.128Z,25.80
2022-10-18T12:56:29.950Z,25.80
2022-10-18T12:59:15.081Z,25.90
2022-10-18T13:01:51.283Z,26.00
2022-10-18T13:04:33.660Z,26.00
2022-10-18T13:07:18.668Z,26.00
2022-10-18T13:10:12.372Z,26.10
2022-10-18T13:13:38.626Z,26.10
2022-10-18T13:16:39.144Z,26.20
2022-10-18T13:19:27.994Z,26.30
2022-10-18T13:22:19.178Z,26.40
2022-10-18T13:25:00.372Z,26.40
2022-10-18T13:28:04.172Z,26.40
2022-10-18T13:30:43.456Z,26.40
2022-10-18T13:33:36.616Z,26.50
2022-10-18T13:36:22.799Z,26.60
2022-10-18T13:38:57.677Z,26.60
2022-10-18T13:41:43.286Z,26.60
2022-10-18T13:44:39.771Z,26.70
2022-10-18T13:47:06.948Z,26.80
2022-10-18T13:49:39.644Z,26.80
2022-10-18T13:53:06.571Z,26.80
2022-10-18T13:55:45.286Z,26.80
2022-10-18T13:58:41.053Z,26.70
2022-10-18T14:01:30.725Z,26.70
2022-10-18T14:04:19.437Z,26.70
2022-10-18T14:06:48.537Z,26.60
2022-10-18T14:12:43.723Z,26.60
2022-10-18T14:15:18.157Z,26.50
2022-10-18T14:17:59.973Z,26.40
2022-10-18T14:20:49.048Z,26.30
2022-10-18T14:23:32.867Z,26.20
2022-10-18T14:26:19.576Z,26.10
2022-10-18T14:29:17.310Z,26.00
2022-10-18T14:31:53.317Z,25.90
2022-10-18T14:34:21.057Z,25.80
2022-10-18T14:36:49.816Z,25.70
2022-10-18T14:39:29.021Z,25.60
2022-10-18T14:41:58.195Z,25.50
2022-10-18T14:44:32.215Z,25.40
2022-10-18T14:47:14.406Z,25.30
2022-10-18T14:49:45.838Z,25.20
2022-10-18T14:52:24.064Z,25.10
2022-10-18T14:54:56.172Z,25.00
2022-10-18T14:57:29.392Z,25.00
2022-10-18T15:00:02.925Z,24.90
2022-10-18T15:02:35.550Z,25.10
2022-10-18T15:05:20.670Z,25.20
2022-10-18T15:07:50.538Z,25.30
2022-10-18T15:10:32.799Z,25.30
2022-10-18T15:13:11.104Z,25.30
2022-10-18T15:15:40.046Z,25.20
2022-10-18T15:18:13.340Z,25.20
2022-10-18T15:20:42.518Z,25.10
2022-10-18T15:23:38.951Z,25.00
2022-10-18T15:26:14.868Z,24.90
2022-10-18T15:28:53.725Z,24.80
2022-10-18T15:31:23.320Z,24.80
2022-10-18T15:33:50.507Z,24.60
2022-10-18T15:36:29.231Z,24.60
2022-10-18T15:39:19.934Z,24.50
2022-10-18T15:41:51.316Z,24.40
2022-10-18T15:44:28.313Z,24.40
2022-10-18T15:47:21.459Z,24.30
2022-10-18T15:49:56.579Z,24.20
2022-10-18T15:52:39.954Z,24.10
2022-10-18T15:55:31.688Z,24.10
2022-10-18T15:58:26.075Z,24.00
2022-10-18T16:01:00.041Z,24.00
2022-10-18T16:03:28.238Z,23.90
2022-10-18T16:06:05.165Z,23.90
2022-10-18T16:08:37.012Z,23.90
2022-10-18T16:11:03.915Z,23.80
2022-10-18T16:13:30.818Z,23.80
2022-10-18T16:15:59.523Z,23.70
2022-10-18T16:18:27.045Z,23.70
2022-10-18T16:20:53.951Z,23.60
2022-10-18T16:23:25.928Z,23.60
2022-10-18T16:25:53.145Z,23.60
2022-10-18T16:28:24.916Z,23.50
2022-10-18T16:31:03.865Z,23.50
2022-10-18T16:33:31.162Z,23.40
2022-10-18T16:35:58.230Z,23.40
2022-10-18T16:38:32.640Z,23.40
2022-10-18T16:41:05.356Z,23.30
2022-10-18T16:43:34.792Z,23.20
2022-10-18T16:46:03.360Z,23.20
2022-10-18T16:48:30.618Z,23.10
2022-10-18T16:50:58.162Z,23.10
2022-10-18T16:53:26.270Z,23.00
2022-10-18T16:56:00.029Z,22.90
2022-10-18T16:58:30.005Z,22.90
2022-10-18T17:00:58.628Z,22.80
2022-10-18T17:03:26.222Z,22.70
2022-10-18T17:05:53.955Z,22.50
2022-10-18T17:08:25.761Z,22.50
2022-10-18T17:10:56.286Z,22.30
2022-10-18T17:13:24.638Z,22.20
2022-10-18T17:15:52.678Z,22.10
2022-10-18T17:18:26.390Z,22.00
2022-10-18T17:20:53.678Z,21.90
2022-10-18T17:23:20.494Z,21.80
2022-10-18T17:25:59.118Z,21.70
2022-10-18T17:28:32.143Z,21.60
2022-10-18T17:30:58.962Z,21.50
2022-10-18T17:33:25.801Z,21.40
2022-10-18T17:35:52.576Z,21.30
2022-10-18T17:38:19.364Z,21.20
2022-10-18T17:40:46.206Z,21.20
2022-10-18T17:43:13.766Z,21.10
2022-10-18T17:45:54.948Z,21.00
2022-10-18T17:48:22.310Z,21.00
2022-10-18T17:50:49.092Z,21.00
2022-10-18T17:53:22.346Z,20.90
2022-10-18T17:55:49.524Z,20.90
2022-10-18T17:58:16.534Z,20.80
2022-10-18T18:00:43.362Z,20.80
2022-10-18T18:03:10.249Z,20.80
2022-10-18T18:05:37.169Z,20.70
2022-10-18T18:08:04.181Z,20.70
2022-10-18T18:10:33.876Z,20.70
2022-10-18T18:13:02.316Z,20.60
2022-10-18T18:15:29.179Z,20.60
2022-10-18T18:17:57.481Z,20.60
2022-10-18T18:20:25.965Z,20.60
2022-10-18T18:22:52.994Z,20.60
2022-10-18T18:25:20.188Z,20.60
2022-10-18T18:27:47.032Z,20.60
2022-10-18T18:30:15.371Z,20.60
2022-10-18T18:32:42.225Z,20.60
2022-10-18T18:35:09.132Z,20.60
2022-10-18T18:37:35.941Z,20.50
2022-10-18T18:40:03.362Z,20.50
2022-10-18T18:42:30.293Z,20.50
2022-10-18T18:44:57.224Z,20.50
2022-10-18T18:47:24.047Z,20.50
2022-10-18T18:49:51.650Z,20.40
2022-10-18T18:52:18.539Z,20.40
2022-10-18T18:54:45.666Z,20.40
2022-10-18T18:57:12.476Z,20.40
2022-10-18T18:59:39.324Z,20.30
2022-10-18T19:02:06.590Z,20.30
2022-10-18T19:04:34.936Z,20.30
2022-10-18T19:07:02.148Z,20.30
2022-10-18T19:09:28.938Z,20.30
2022-10-18T19:11:56.609Z,20.30
2022-10-18T19:14:25.361Z,20.20
2022-10-18T19:17:02.411Z,20.20
2022-10-18T19:19:31.232Z,20.20
2022-10-18T19:22:01.687Z,20.20
2022-10-18T19:24:32.829Z,20.20
2022-10-18T19:27:11.727Z,20.20
2022-10-18T19:29:40.807Z,20.20
2022-10-18T19:32:14.941Z,20.20
2022-10-18T19:34:42.298Z,20.10
2022-10-18T19:37:12.387Z,20.10
2022-10-18T19:39:39.531Z,20.10
2022-10-18T19:42:14.572Z,20.10
2022-10-18T19:44:44.083Z,20.10
2022-10-18T19:47:15.644Z,20.00
2022-10-18T19:49:45.133Z,20.00
2022-10-18T19:52:12.454Z,20.00
2022-10-18T19:54:39.574Z,19.90
2022-10-18T19:57:06.884Z,19.90
2022-10-18T19:59:35.893Z,19.80
2022-10-18T20:02:06.350Z,19.80
2022-10-18T20:04:34.971Z,19.70
2022-10-18T20:07:02.727Z,19.70
2022-10-18T20:09:29.780Z,19.70
2022-10-18T20:11:56.655Z,19.60
2022-10-18T20:14:23.655Z,19.60
2022-10-18T20:16:50.422Z,19.50
2022-10-18T20:19:17.301Z,19.40
2022-10-18T20:21:44.149Z,19.40
2022-10-18T20:24:11.833Z,19.40
2022-10-18T20:26:39.636Z,19.30
2022-10-18T20:29:07.781Z,19.30
2022-10-18T20:31:39.231Z,19.20
2022-10-18T20:34:11.799Z,19.20
2022-10-18T20:36:39.995Z,19.10
2022-10-18T20:39:07.695Z,19.10
2022-10-18T20:41:38.781Z,19.10
2022-10-18T20:44:11.422Z,19.00
2022-10-18T20:46:39.719Z,19.00
2022-10-18T20:49:08.595Z,18.90
2022-10-18T20:51:36.079Z,18.90
2022-10-18T20:54:11.414Z,18.80
2022-10-18T20:56:39.556Z,18.80
2022-10-18T20:59:09.652Z,18.80
2022-10-18T21:01:39.217Z,18.70
2022-10-18T21:04:09.720Z,18.70
2022-10-18T21:06:40.951Z,18.70
2022-10-18T21:09:12.947Z,18.60
2022-10-18T21:11:44.709Z,18.60
2022-10-18T21:14:15.353Z,18.60
2022-10-18T21:16:43.670Z,18.50
2022-10-18T21:19:23.178Z,18.50
2022-10-18T21:21:55.367Z,18.40
2022-10-18T21:24:24.917Z,18.40
2022-10-18T21:26:52.334Z,18.30
2022-10-18T21:29:22.292Z,18.30
2022-10-18T21:31:53.748Z,18.30
2022-10-18T21:34:21.022Z,18.30
2022-10-18T21:36:49.022Z,18.20
2022-10-18T21:39:21.095Z,18.20
2022-10-18T21:41:48.924Z,18.10
2022-10-18T21:44:16.942Z,18.00
2022-10-18T21:46:44.067Z,18.00
2022-10-18T21:49:14.687Z,18.00
2022-10-18T21:51:42.116Z,17.90
2022-10-18T21:54:13.568Z,18.00
2022-10-18T21:56:40.607Z,17.90
2022-10-18T21:59:07.647Z,17.80
2022-10-18T22:01:38.998Z,17.80
2022-10-18T22:04:16.978Z,17.70
2022-10-18T22:06:43.837Z,17.70
2022-10-18T22:09:10.701Z,17.70
2022-10-18T22:11:42.363Z,17.70
2022-10-18T22:14:09.478Z,17.60
2022-10-18T22:16:36.577Z,17.60
2022-10-18T22:19:05.566Z,17.60
2022-10-18T22:21:33.421Z,17.60
2022-10-18T22:24:03.494Z,17.70
2022-10-18T22:26:37.070Z,17.60
2022-10-18T22:29:22.111Z,17.70
2022-10-18T22:31:53.495Z,17.70
2022-10-18T22:34:24.573Z,17.70
2022-10-18T22:36:51.402Z,17.70
2022-10-18T22:39:18.383Z,17.70
2022-10-18T22:41:45.535Z,17.70
2022-10-18T22:44:14.437Z,17.70
2022-10-18T22:46:42.329Z,17.70
2022-10-18T22:49:09.380Z,17.70
2022-10-18T22:54:03.267Z,17.80
2022-10-18T22:56:30.088Z,17.70
2022-10-18T22:58:56.930Z,17.80
2022-10-18T23:01:24.559Z,17.70
2022-10-18T23:03:59.926Z,17.80
2022-10-18T23:06:34.268Z,17.80
2022-10-18T23:09:06.073Z,17.80
2022-10-18T23:11:35.145Z,17.80
2022-10-18T23:14:03.747Z,17.80
2022-10-18T23:16:30.805Z,17.80
2022-10-18T23:18:58.509Z,17.90
2022-10-18T23:21:28.732Z,17.90
2022-10-18T23:23:57.483Z,17.90
2022-10-18T23:26:27.773Z,17.90
2022-10-18T23:28:55.096Z,18.00
2022-10-18T23:31:27.659Z,18.00
2022-10-18T23:34:00.321Z,18.00
2022-10-18T23:36:28.418Z,18.00
2022-10-18T23:38:56.460Z,18.00
2022-10-18T23:41:24.012Z,18.10
2022-10-18T23:43:51.518Z,18.10
2022-10-18T23:46:19.180Z,18.10
2022-10-18T23:48:46.948Z,18.10
2022-10-18T23:51:15.033Z,18.10
2022-10-18T23:53:42.929Z,18.10
2022-10-18T23:56:14.018Z,18.20
2022-10-18T23:58:42.294Z,18.20
